Time;durP1;ratioP1;P1;durP2;ratioP2;P2;SDS_P1;SDS_P2;PMS_P1;PMS_P2;Temp;Humidity;BMP_temperature;BMP_pressure;BME280_temperature;BME280_humidity;BME280_pressure;Samples;Min_cycle;Max_cycle;Signal;HPM_P1;HPM_P2
2021/12/26 00:01:06;;;;;;;10.52;6.13;;;;;;;3.65;65.93;91628.25;2075321;69;20144;-70
2021/12/26 00:03:33;;;;;;;13.63;8.05;;;;;;;3.51;66.73;91625.22;2074552;69;20245;-70
2021/12/26 00:06:06;;;;;;;15.40;7.63;;;;;;;3.66;66.31;91626.94;2074874;69;20224;-74
2021/12/26 00:08:36;;;;;;;12.55;7.32;;;;;;;3.46;66.83;91620.72;2074799;69;20140;-70
2021/12/26 00:11:03;;;;;;;12.05;7.80;;;;;;;3.60;66.58;91623.75;2075014;69;20144;-71
2021/12/26 00:13:30;;;;;;;12.43;7.38;;;;;;;3.59;66.45;91623.00;2074839;69;20231;-72
2021/12/26 00:15:59;;;;;;;17.33;8.63;;;;;;;3.52;66.85;91624.63;2074481;69;20629;-71
2021/12/26 00:18:25;;;;;;;13.18;8.00;;;;;;;3.48;66.87;91618.81;2073866;69;20152;-71
2021/12/26 00:20:51;;;;;;;11.68;6.63;;;;;;;3.31;67.71;91630.88;2073985;69;20198;-72
2021/12/26 00:23:17;;;;;;;15.10;9.20;;;;;;;3.20;68.60;91628.69;2074002;69;20290;-72
2021/12/26 00:25:44;;;;;;;16.15;8.45;;;;;;;3.40;67.10;91628.66;2071077;69;20308;-73
2021/12/26 00:28:11;;;;;;;13.52;8.77;;;;;;;3.38;67.26;91620.88;2071067;69;20224;-76
2021/12/26 00:30:37;;;;;;;14.95;8.90;;;;;;;3.40;66.96;91628.66;2070841;69;20769;-74
2021/12/26 00:33:04;;;;;;;15.50;8.82;;;;;;;3.24;67.72;91623.41;2070969;69;20183;-71
2021/12/26 00:35:32;;;;;;;16.15;8.43;;;;;;;3.33;66.83;91616.34;2071225;69;20602;-71
2021/12/26 00:37:58;;;;;;;15.18;8.48;;;;;;;3.42;66.74;91626.00;2071333;69;20159;-70
2021/12/26 00:40:29;;;;;;;15.18;9.15;;;;;;;3.46;66.93;91618.66;2070919;69;20618;-70
2021/12/26 00:42:56;;;;;;;14.85;8.27;;;;;;;3.44;66.93;91621.31;2074718;69;20140;-70
2021/12/26 00:45:23;;;;;;;13.27;7.90;;;;;;;3.41;67.04;91618.97;2075020;69;20148;-71
2021/12/26 00:47:49;;;;;;;12.65;7.30;;;;;;;3.50;66.86;91626.56;2071610;69;20229;-71
2021/12/26 00:50:23;;;;;;;14.45;7.72;;;;;;;3.54;66.63;91621.28;2068379;69;20143;-71
2021/12/26 00:52:50;;;;;;;11.20;6.30;;;;;;;3.49;67.06;91622.31;2071437;69;20152;-70
2021/12/26 00:55:16;;;;;;;11.73;6.35;;;;;;;3.59;66.80;91622.28;2071105;69;20151;-70
2021/12/26 00:57:43;;;;;;;9.57;6.03;;;;;;;3.54;66.28;91626.84;2071638;69;20179;-70
2021/12/26 01:00:13;;;;;;;11.98;6.60;;;;;;;3.61;66.11;91614.06;2071712;69;20278;-74
2021/12/26 01:02:39;;;;;;;11.60;6.80;;;;;;;3.50;66.75;91623.78;2071227;69;20136;-70
2021/12/26 01:05:08;;;;;;;12.93;7.32;;;;;;;3.56;67.19;91632.53;2071515;69;20514;-72
2021/12/26 01:08:15;;;;;;;13.18;7.57;;;;;;;3.52;67.03;91626.69;2070793;69;20152;-76
2021/12/26 01:10:27;;;;;;;15.05;7.65;;;;;;;3.51;67.12;91634.31;2073290;69;20184;-72
2021/12/26 01:12:54;;;;;;;13.48;7.68;;;;;;;3.54;67.10;91635.19;2071318;69;20152;-74
2021/12/26 01:15:23;;;;;;;12.30;7.50;;;;;;;3.58;66.76;91632.69;2074594;69;20136;-73
2021/12/26 01:17:57;;;;;;;12.23;6.85;;;;;;;3.50;67.31;91632.13;2071073;69;20211;-71
2021/12/26 01:23:18;;;;;;;11.10;7.22;;;;;;;3.45;67.56;91642.25;2071448;69;20140;-75
2021/12/26 01:25:47;;;;;;;11.73;7.22;;;;;;;3.52;66.61;91644.13;2071136;69;20475;-70
2021/12/26 01:28:15;;;;;;;14.30;8.02;;;;;;;3.49;66.86;91653.66;2071106;69;20154;-77
2021/12/26 01:30:42;;;;;;;16.30;8.80;;;;;;;3.41;67.38;91650.31;2074465;69;20147;-70
2021/12/26 01:33:11;;;;;;;15.00;8.70;;;;;;;3.41;66.70;91646.81;2074766;69;20143;-70
2021/12/26 01:35:56;;;;;;;12.90;7.90;;;;;;;3.45;66.36;91653.38;2070874;69;20136;-70
2021/12/26 01:38:43;;;;;;;14.48;7.57;;;;;;;3.50;66.39;91643.25;2073995;69;20172;-72
2021/12/26 01:41:39;;;;;;;13.70;7.13;;;;;;;3.47;66.49;91644.44;2068813;69;20246;-74
2021/12/26 01:44:30;;;;;;;17.02;10.30;;;;;;;3.25;67.57;91643.59;2068482;69;20264;-71
2021/12/26 01:46:58;;;;;;;16.70;9.00;;;;;;;3.23;67.42;91644.19;2070868;69;20176;-71
2021/12/26 01:49:30;;;;;;;13.35;7.53;;;;;;;3.24;67.06;91648.44;2070916;69;20156;-77
2021/12/26 01:51:59;;;;;;;13.48;8.13;;;;;;;3.09;68.01;91651.56;2074631;69;20147;-70
2021/12/26 01:54:32;;;;;;;13.50;7.97;;;;;;;3.11;67.72;91639.84;2072145;69;20151;-69
2021/12/26 01:57:01;;;;;;;15.40;8.35;;;;;;;3.21;67.03;91646.13;2072065;69;20205;-73
2021/12/26 01:59:28;;;;;;;13.60;7.95;;;;;;;3.16;67.22;91647.13;2071856;69;20180;-71
2021/12/26 02:02:05;;;;;;;12.65;7.55;;;;;;;3.21;67.09;91641.28;2071417;69;20148;-76
2021/12/26 02:04:32;;;;;;;15.10;8.57;;;;;;;3.23;67.26;91641.41;2071298;69;20622;-70
2021/12/26 02:07:01;;;;;;;14.48;7.93;;;;;;;3.20;66.88;91642.59;2071916;69;20175;-70
2021/12/26 02:09:26;;;;;;;11.90;7.70;;;;;;;3.27;67.00;91643.75;2071911;69;20231;-70
2021/12/26 02:11:55;;;;;;;13.32;7.60;;;;;;;3.20;67.09;91637.03;2071935;69;20674;-75
2021/12/26 02:14:21;;;;;;;10.57;6.50;;;;;;;3.22;67.20;91633.69;2071967;69;20555;-71
2021/12/26 02:17:23;;;;;;;8.85;5.60;;;;;;;3.33;66.89;91637.88;2063988;69;20143;-71
2021/12/26 02:19:50;;;;;;;10.98;6.45;;;;;;;3.05;67.97;91642.91;2069450;69;20148;-74
2021/12/26 02:22:23;;;;;;;10.65;6.47;;;;;;;3.06;67.72;91633.97;2071959;69;20163;-74
2021/12/26 02:27:32;;;;;;;11.73;6.53;;;;;;;3.13;67.51;91637.94;2071924;69;20048;-77
2021/12/26 02:29:59;;;;;;;11.82;7.35;;;;;;;2.84;68.48;91635.22;2071400;69;20155;-76
2021/12/26 02:32:30;;;;;;;15.10;7.88;;;;;;;2.88;68.23;91638.25;2075363;69;20164;-76
2021/12/26 02:34:58;;;;;;;13.98;7.65;;;;;;;2.97;68.31;91640.28;2074930;69;20128;-76
2021/12/26 02:37:24;;;;;;;12.43;7.75;;;;;;;2.82;68.11;91637.09;2075320;69;20176;-71
2021/12/26 02:39:51;;;;;;;12.63;7.63;;;;;;;2.93;67.87;91647.59;2071335;69;20735;-71
2021/12/26 02:42:22;;;;;;;14.63;7.72;;;;;;;2.81;68.20;91644.72;2071559;69;20139;-70
2021/12/26 02:44:50;;;;;;;15.52;7.50;;;;;;;2.83;68.17;91653.19;2070922;69;20250;-69
2021/12/26 02:47:38;;;;;;;14.70;7.75;;;;;;;2.91;68.04;91655.81;2071183;69;20152;-71
2021/12/26 02:50:18;;;;;;;12.80;7.40;;;;;;;2.78;67.81;91646.59;2071721;69;20140;-69
2021/12/26 02:52:46;;;;;;;11.65;6.95;;;;;;;2.79;68.45;91659.19;2071680;69;20128;-69
2021/12/26 02:55:13;;;;;;;13.90;6.75;;;;;;;2.85;67.81;91664.47;2071610;69;20176;-69
2021/12/26 02:57:42;;;;;;;12.77;6.65;;;;;;;2.86;67.59;91645.72;2075249;69;20163;-69
2021/12/26 03:00:12;;;;;;;10.48;6.30;;;;;;;2.92;66.90;91646.88;2075258;69;20168;-69
2021/12/26 03:02:43;;;;;;;10.57;5.97;;;;;;;2.89;67.57;91650.84;2075073;69;20230;-69
2021/12/26 03:05:10;;;;;;;11.50;6.25;;;;;;;2.85;67.75;91647.06;2071194;69;20168;-69
2021/12/26 03:07:36;;;;;;;9.45;5.78;;;;;;;2.76;68.27;91645.75;2071566;69;20231;-69
2021/12/26 03:10:05;;;;;;;11.73;5.95;;;;;;;2.74;67.96;91651.13;2071789;69;20150;-70
2021/12/26 03:12:33;;;;;;;9.65;6.03;;;;;;;2.67;68.57;91641.66;2071854;69;20235;-72
2021/12/26 03:15:00;;;;;;;9.80;5.50;;;;;;;2.69;69.00;91646.59;2075325;69;20152;-74
2021/12/26 03:17:26;;;;;;;12.15;6.10;;;;;;;2.80;68.47;91643.97;2071914;69;20155;-76
2021/12/26 03:19:51;;;;;;;10.95;5.57;;;;;;;2.79;67.99;91655.66;2075240;69;20507;-72
2021/12/26 03:22:18;;;;;;;8.60;5.65;;;;;;;2.79;68.21;91647.34;2075372;69;20240;-72
2021/12/26 03:24:44;;;;;;;8.73;5.13;;;;;;;2.79;68.50;91650.88;2071849;69;20148;-72
2021/12/26 03:27:12;;;;;;;7.15;4.80;;;;;;;2.87;68.22;91652.75;2071871;69;20155;-74
2021/12/26 03:29:39;;;;;;;9.32;5.57;;;;;;;2.83;67.83;91646.91;2071859;69;20179;-71
2021/12/26 03:32:11;;;;;;;8.88;5.38;;;;;;;2.80;68.00;91646.75;2071868;69;20163;-71
2021/12/26 03:34:47;;;;;;;11.35;5.78;;;;;;;2.76;68.64;91657.59;2075119;69;20179;-71
2021/12/26 03:37:13;;;;;;;9.70;5.50;;;;;;;2.72;68.49;91651.72;2071861;69;20612;-72
2021/12/26 03:39:39;;;;;;;8.15;4.93;;;;;;;2.85;67.64;91647.06;2071822;69;20601;-72
2021/12/26 03:42:05;;;;;;;10.45;5.18;;;;;;;2.78;68.69;91648.66;2071841;69;20205;-71
2021/12/26 03:44:31;;;;;;;8.80;5.18;;;;;;;2.71;68.21;91647.50;2071830;69;20227;-71
2021/12/26 03:46:57;;;;;;;9.25;5.90;;;;;;;2.73;68.52;91655.97;2071836;69;20793;-71
2021/12/26 03:49:22;;;;;;;10.88;5.93;;;;;;;2.73;68.69;91658.75;2071726;69;20180;-75
2021/12/26 03:51:48;;;;;;;12.23;7.15;;;;;;;2.62;69.09;91651.00;2071805;69;20602;-74
2021/12/26 03:54:15;;;;;;;12.10;7.28;;;;;;;2.68;68.98;91661.81;2071825;69;20156;-74
2021/12/26 03:56:41;;;;;;;14.18;7.95;;;;;;;2.64;69.25;91665.03;2071782;69;20156;-72
2021/12/26 03:59:20;;;;;;;17.10;7.45;;;;;;;2.64;68.74;91662.25;2071766;69;20140;-74
2021/12/26 04:01:46;;;;;;;13.65;7.80;;;;;;;2.42;69.65;91660.63;2071800;69;20144;-76
2021/12/26 04:04:12;;;;;;;22.17;11.77;;;;;;;2.12;70.59;91659.16;2071348;69;20194;-75
2021/12/26 04:06:38;;;;;;;16.67;9.48;;;;;;;2.31;70.29;91656.38;2075484;69;20629;-71
2021/12/26 04:09:07;;;;;;;15.27;8.27;;;;;;;2.57;69.68;91654.81;2071824;69;20140;-71
2021/12/26 04:11:35;;;;;;;14.15;8.32;;;;;;;2.56;69.33;91653.34;2071782;69;20260;-72
2021/12/26 04:14:01;;;;;;;13.27;7.63;;;;;;;2.76;68.73;91657.59;2075161;69;20132;-71
2021/12/26 04:16:27;;;;;;;13.10;8.18;;;;;;;2.72;68.95;91653.78;2071767;69;20755;-71
2021/12/26 04:18:53;;;;;;;12.15;7.10;;;;;;;2.25;70.82;91651.13;2068942;69;20148;-70
2021/12/26 04:21:18;;;;;;;14.63;7.65;;;;;;;2.34;71.17;91652.47;2071608;69;20598;-71
2021/12/26 04:23:54;;;;;;;14.70;7.78;;;;;;;2.61;70.23;91651.56;2071719;69;20144;-70
2021/12/26 04:26:20;;;;;;;13.55;7.35;;;;;;;2.52;70.30;91653.78;2075193;69;20613;-71
2021/12/26 04:28:45;;;;;;;15.20;7.30;;;;;;;2.54;70.36;91648.38;2071765;69;20143;-72
2021/12/26 04:31:11;;;;;;;12.85;6.90;;;;;;;2.76;69.69;91659.63;2071808;69;20142;-72
2021/12/26 04:33:37;;;;;;;12.90;7.18;;;;;;;2.75;69.54;91664.47;2071731;69;20160;-71
2021/12/26 04:36:03;;;;;;;11.10;7.07;;;;;;;2.77;69.52;91658.31;2071616;69;20190;-72
2021/12/26 04:38:29;;;;;;;12.82;7.13;;;;;;;2.75;69.84;91658.19;2071734;69;20158;-70
2021/12/26 04:40:55;;;;;;;13.23;6.40;;;;;;;2.77;69.43;91663.88;2071729;69;20155;-71
2021/12/26 04:43:44;;;;;;;11.70;5.82;;;;;;;2.79;69.69;91675.13;2071683;69;20297;-71
2021/12/26 04:46:29;;;;;;;8.38;5.10;;;;;;;2.71;69.74;91677.34;2071714;69;20571;-71
2021/12/26 04:49:01;;;;;;;13.50;7.88;;;;;;;2.84;69.41;91676.16;2071681;69;20144;-71
2021/12/26 04:51:26;;;;;;;14.27;8.93;;;;;;;2.71;69.59;91671.78;2071547;69;20150;-71
2021/12/26 04:53:55;;;;;;;12.50;7.75;;;;;;;2.74;69.45;91676.16;2071635;69;20148;-71
2021/12/26 04:56:20;;;;;;;12.57;8.20;;;;;;;2.53;70.28;91671.19;2071634;69;20204;-70
2021/12/26 04:58:46;;;;;;;14.52;8.75;;;;;;;2.52;69.98;91672.47;2071642;69;20196;-72
2021/12/26 05:01:12;;;;;;;16.55;9.10;;;;;;;2.53;69.77;91671.91;2075031;69;20144;-71
2021/12/26 05:03:39;;;;;;;13.48;8.80;;;;;;;2.55;69.83;91674.09;2071538;69;20235;-72
2021/12/26 05:06:05;;;;;;;12.70;8.23;;;;;;;2.53;69.50;91665.63;2074855;69;20152;-70
2021/12/26 05:08:30;;;;;;;11.95;7.65;;;;;;;2.64;69.27;91669.88;2075036;69;20146;-71
2021/12/26 05:10:56;;;;;;;15.32;9.60;;;;;;;2.69;69.41;91674.41;2071614;69;20230;-72
2021/12/26 05:13:23;;;;;;;16.23;10.48;;;;;;;2.75;69.23;91672.81;2071634;69;20221;-74
2021/12/26 05:15:49;;;;;;;16.45;10.35;;;;;;;2.67;69.64;91665.94;2074937;69;20551;-75
2021/12/26 05:18:16;;;;;;;17.90;10.18;;;;;;;2.64;69.91;91672.66;2071623;69;20509;-76
2021/12/26 05:20:44;;;;;;;16.55;10.18;;;;;;;2.71;69.32;91664.16;2068778;69;20233;-74
2021/12/26 05:23:10;;;;;;;15.75;9.38;;;;;;;2.59;69.67;91668.13;2075104;69;20146;-75
2021/12/26 05:25:36;;;;;;;13.20;9.10;;;;;;;2.69;69.28;91668.84;2068802;69;20152;-75
2021/12/26 05:28:02;;;;;;;15.82;9.25;;;;;;;2.69;69.63;91669.56;2071601;69;20209;-76
2021/12/26 05:30:29;;;;;;;14.40;8.50;;;;;;;2.74;69.08;91665.75;2074940;69;20168;-74
2021/12/26 05:33:14;;;;;;;15.02;8.90;;;;;;;2.57;70.31;91667.94;2071616;69;20140;-75
2021/12/26 05:35:41;;;;;;;12.43;7.15;;;;;;;2.36;71.34;91663.72;2071431;69;20136;-75
2021/12/26 05:38:07;;;;;;;12.23;6.90;;;;;;;2.39;71.34;91661.81;2071563;69;20601;-75
2021/12/26 05:40:34;;;;;;;11.48;7.15;;;;;;;2.67;70.55;91669.44;2071546;69;20155;-76
2021/12/26 05:43:00;;;;;;;10.68;6.28;;;;;;;2.77;69.27;91672.94;2071579;69;20227;-72
2021/12/26 05:45:26;;;;;;;12.25;7.13;;;;;;;2.62;70.29;91684.34;2071563;69;20666;-71
2021/12/26 05:48:11;;;;;;;12.13;6.97;;;;;;;2.71;69.92;91686.41;2071545;69;20198;-73
2021/12/26 05:50:37;;;;;;;17.23;9.00;;;;;;;2.62;70.24;91672.50;2071405;69;20552;-71
2021/12/26 05:53:04;;;;;;;13.10;8.27;;;;;;;2.75;69.49;91680.41;2071510;69;20206;-73
2021/12/26 05:55:31;;;;;;;14.07;8.57;;;;;;;2.68;69.85;91684.78;2071467;69;20183;-74
2021/12/26 05:57:57;;;;;;;12.82;8.25;;;;;;;2.74;69.39;91670.59;2071533;69;20151;-75
2021/12/26 06:00:23;;;;;;;19.55;10.30;;;;;;;2.68;69.58;91673.66;2071521;69;20139;-76
2021/12/26 06:02:50;;;;;;;26.10;13.77;;;;;;;2.61;70.20;91669.00;2074919;69;20214;-76
2021/12/26 06:05:19;;;;;;;27.77;14.73;;;;;;;2.64;69.71;91670.59;2071380;69;20490;-75
2021/12/26 06:07:45;;;;;;;27.08;14.23;;;;;;;2.61;69.47;91668.25;2074908;69;20140;-76
2021/12/26 06:10:12;;;;;;;16.55;9.95;;;;;;;2.64;69.46;91669.88;2071490;69;20234;-76
2021/12/26 06:12:38;;;;;;;18.27;9.80;;;;;;;2.69;68.89;91668.84;2071470;69;20175;-72
2021/12/26 06:15:04;;;;;;;64.55;41.40;;;;;;;2.51;69.84;91665.47;2071449;69;20140;-76
2021/12/26 06:17:31;;;;;;;62.10;40.25;;;;;;;2.50;69.97;91672.34;2071466;69;20144;-74
2021/12/26 06:20:23;;;;;;;57.63;33.67;;;;;;;2.49;69.82;91674.41;2074082;69;20236;-76
2021/12/26 06:23:07;;;;;;;45.85;29.10;;;;;;;2.45;70.05;91676.88;2074870;69;20162;-76
2021/12/26 06:25:45;;;;;;;34.67;21.38;;;;;;;2.46;69.31;91674.81;2074809;69;20659;-76
2021/12/26 06:28:20;;;;;;;23.25;14.50;;;;;;;2.46;69.31;91680.38;2071687;69;20144;-76
2021/12/26 06:31:15;;;;;;;30.08;16.88;;;;;;;2.33;69.35;91678.75;2072886;69;20162;-76
2021/12/26 06:34:14;;;;;;;30.55;16.10;;;;;;;2.36;68.93;91683.16;2069066;69;20209;-77
2021/12/26 06:36:58;;;;;;;30.40;16.70;;;;;;;2.24;69.18;91680.19;2075353;69;20167;-74
2021/12/26 06:39:42;;;;;;;28.05;15.95;;;;;;;2.29;69.41;91681.97;2075472;69;20722;-76
2021/12/26 06:42:29;;;;;;;22.67;13.45;;;;;;;2.28;69.79;91683.28;2075512;69;20186;-76
2021/12/26 06:45:16;;;;;;;21.70;11.63;;;;;;;2.26;69.77;91682.41;2075332;69;20159;-76
2021/12/26 06:48:06;;;;;;;28.60;13.93;;;;;;;2.31;69.32;91691.75;2073824;69;20152;-73
2021/12/26 06:50:33;;;;;;;50.72;23.60;;;;;;;2.12;69.73;91690.41;2071780;69;20594;-76
2021/12/26 06:52:58;;;;;;;28.30;14.30;;;;;;;2.26;69.60;91696.28;2075408;69;20182;-76
2021/12/26 06:55:24;;;;;;;39.80;18.25;;;;;;;2.25;69.58;91695.56;2075297;69;20554;-76
2021/12/26 06:57:52;;;;;;;40.03;18.80;;;;;;;2.23;69.79;91694.66;2075240;69;20602;-75
2021/12/26 07:00:18;;;;;;;34.65;17.65;;;;;;;2.24;69.74;91707.97;2075246;69;20166;-76
2021/12/26 07:02:45;;;;;;;32.72;15.52;;;;;;;2.23;69.49;91697.44;2069088;69;20515;-76
2021/12/26 07:05:12;;;;;;;26.55;14.68;;;;;;;2.09;70.74;91699.91;2068980;69;20163;-71
2021/12/26 07:08:01;;;;;;;27.27;14.77;;;;;;;2.12;70.84;91698.75;2075453;69;20239;-76
2021/12/26 07:10:27;;;;;;;27.67;15.63;;;;;;;2.31;70.44;91695.28;2071901;69;20166;-75
2021/12/26 07:12:53;;;;;;;30.33;16.00;;;;;;;2.28;70.20;91688.81;2071920;69;20590;-72
2021/12/26 07:15:29;;;;;;;25.33;13.30;;;;;;;2.36;70.04;91693.53;2071951;69;20256;-73
2021/12/26 07:17:58;;;;;;;27.20;14.57;;;;;;;2.22;71.04;91699.50;2071894;69;20178;-72
2021/12/26 07:20:24;;;;;;;27.17;14.60;;;;;;;2.29;70.10;91698.63;2071710;69;20148;-72
2021/12/26 07:23:09;;;;;;;29.20;15.38;;;;;;;2.38;70.23;91702.72;2075243;69;20637;-72
2021/12/26 07:25:36;;;;;;;26.15;14.05;;;;;;;2.34;69.87;91694.13;2071782;69;20147;-71
2021/12/26 07:28:03;;;;;;;29.27;16.52;;;;;;;2.25;70.80;91697.59;2071825;69;20151;-76
2021/12/26 07:30:53;;;;;;;33.05;17.77;;;;;;;2.40;70.13;91702.16;2073559;69;20187;-73
2021/12/26 07:33:18;;;;;;;37.17;19.08;;;;;;;2.34;70.00;91710.78;2071632;69;20572;-76
2021/12/26 07:35:47;;;;;;;32.13;17.90;;;;;;;2.37;70.19;91711.66;2071719;69;20136;-75
2021/12/26 07:38:35;;;;;;;36.22;18.60;;;;;;;2.47;69.71;91715.91;2071725;69;20189;-75
2021/12/26 07:41:01;;;;;;;35.92;19.10;;;;;;;2.50;70.02;91711.25;2071850;69;20132;-75
2021/12/26 07:43:37;;;;;;;34.22;19.25;;;;;;;2.47;70.32;91718.69;2071822;69;20167;-72
2021/12/26 07:46:21;;;;;;;35.38;19.50;;;;;;;2.55;69.74;91729.66;2075202;69;20506;-75
2021/12/26 07:48:48;;;;;;;37.53;20.05;;;;;;;2.61;69.30;91724.56;2071805;69;20178;-73
2021/12/26 07:51:33;;;;;;;39.20;22.35;;;;;;;2.70;69.11;91731.44;2075189;69;20163;-77
2021/12/26 07:54:19;;;;;;;65.28;35.65;;;;;;;2.38;70.71;91715.88;2075258;69;20178;-76
2021/12/26 07:57:06;;;;;;;67.07;37.05;;;;;;;2.59;70.24;91715.34;2075303;69;20281;-76
2021/12/26 07:59:50;;;;;;;63.90;34.90;;;;;;;2.55;70.89;91721.34;2075199;69;20225;-71
2021/12/26 08:02:36;;;;;;;65.20;34.60;;;;;;;2.71;70.36;91716.97;2075072;69;20230;-72
2021/12/26 08:05:21;;;;;;;75.15;43.05;;;;;;;2.75;70.64;91722.84;2075129;69;20522;-71
2021/12/26 08:07:57;;;;;;;63.40;36.60;;;;;;;2.76;70.63;91718.72;2071726;69;20147;-72
2021/12/26 08:10:25;;;;;;;65.00;35.97;;;;;;;2.67;70.53;91716.69;2075151;69;20142;-71
2021/12/26 08:12:50;;;;;;;55.42;30.92;;;;;;;2.79;70.60;91720.34;2071854;69;20529;-78
2021/12/26 08:15:16;;;;;;;54.60;30.80;;;;;;;2.98;70.18;91727.22;2071727;69;20140;-77
2021/12/26 08:17:42;;;;;;;52.63;31.20;;;;;;;2.98;70.83;91730.75;2075192;69;20601;-77
2021/12/26 08:20:08;;;;;;;51.15;30.55;;;;;;;3.04;70.56;91725.59;2074995;69;20171;-77
2021/12/26 08:22:35;;;;;;;49.85;27.98;;;;;;;3.25;69.62;91736.16;2075115;69;20542;-78
2021/12/26 08:25:02;;;;;;;42.53;25.15;;;;;;;3.29;69.85;91735.69;2075106;69;20148;-78
2021/12/26 08:27:27;;;;;;;41.95;23.63;;;;;;;3.01;70.21;91740.69;2071771;69;20136;-77
2021/12/26 08:29:53;;;;;;;45.08;25.40;;;;;;;3.16;70.36;91739.66;2075128;69;20663;-73
2021/12/26 08:32:19;;;;;;;38.42;21.60;;;;;;;3.23;69.77;91738.78;2075129;69;20594;-74
2021/12/26 08:34:45;;;;;;;40.10;22.13;;;;;;;3.41;69.75;91744.19;2074970;69;20228;-76
2021/12/26 08:37:13;;;;;;;41.65;23.02;;;;;;;3.40;69.65;91739.94;2075050;69;20148;-75
2021/12/26 08:39:41;;;;;;;38.05;22.35;;;;;;;3.55;68.62;91736.81;2075127;69;20231;-71
2021/12/26 08:42:09;;;;;;;36.75;22.08;;;;;;;3.65;68.38;91736.81;2071775;69;20175;-71
2021/12/26 08:44:35;;;;;;;33.13;20.42;;;;;;;3.67;68.00;91736.97;2075027;69;20148;-71
2021/12/26 08:47:02;;;;;;;38.25;23.25;;;;;;;3.69;68.32;91737.09;2075081;69;20151;-78
2021/12/26 08:49:28;;;;;;;38.40;21.70;;;;;;;3.83;68.53;91740.84;2074946;69;20172;-74
2021/12/26 08:51:53;;;;;;;36.40;21.35;;;;;;;3.98;68.93;91739.78;2075010;69;20551;-74
2021/12/26 08:54:22;;;;;;;33.65;19.63;;;;;;;3.82;67.92;91740.13;2075039;69;20234;-73
2021/12/26 08:56:48;;;;;;;46.95;25.77;;;;;;;3.79;68.31;91738.53;2074991;69;20171;-73
2021/12/26 08:59:14;;;;;;;43.72;23.80;;;;;;;4.03;67.44;91744.31;2075007;69;20189;-76
2021/12/26 09:01:40;;;;;;;41.78;23.98;;;;;;;4.10;67.83;91748.25;2075000;69;20605;-73
2021/12/26 09:04:06;;;;;;;37.65;22.30;;;;;;;4.24;67.53;91740.88;2074723;69;20217;-73
2021/12/26 09:06:32;;;;;;;41.35;21.95;;;;;;;4.25;66.78;91745.09;2074990;69;20140;-76
2021/12/26 09:08:59;;;;;;;33.80;20.05;;;;;;;4.12;67.71;91743.53;2074943;69;20159;-73
2021/12/26 09:11:24;;;;;;;40.88;21.45;;;;;;;4.20;67.34;91752.44;2074951;69;20235;-77
2021/12/26 09:13:50;;;;;;;37.72;21.73;;;;;;;4.40;67.03;91741.97;2075080;69;20152;-74
2021/12/26 09:16:16;;;;;;;37.58;19.80;;;;;;;4.53;66.71;91747.00;2075059;69;20148;-73
2021/12/26 09:18:42;;;;;;;34.17;19.35;;;;;;;4.48;67.47;91750.13;2075123;69;20234;-79
2021/12/26 09:21:07;;;;;;;35.42;19.38;;;;;;;4.52;66.62;91745.56;2075067;69;20227;-76
2021/12/26 09:23:33;;;;;;;44.97;24.50;;;;;;;3.86;67.67;91753.59;2075039;69;20144;-76
2021/12/26 09:25:59;;;;;;;43.47;24.05;;;;;;;4.21;67.81;91753.19;2071559;69;20148;-76
2021/12/26 09:28:25;;;;;;;38.50;22.45;;;;;;;4.41;66.45;91748.28;2074929;69;20652;-77
2021/12/26 09:30:52;;;;;;;40.97;22.40;;;;;;;4.53;66.11;91749.06;2075053;69;20156;-72
2021/12/26 09:33:19;;;;;;;36.38;20.77;;;;;;;4.57;66.17;91744.50;2071591;69;20175;-73
2021/12/26 09:35:50;;;;;;;39.10;19.95;;;;;;;4.65;65.48;91749.91;2074864;69;20213;-73
2021/12/26 09:38:16;;;;;;;42.53;22.95;;;;;;;4.69;66.01;91757.81;2075127;69;20209;-73
2021/12/26 09:40:42;;;;;;;36.00;20.00;;;;;;;4.79;65.28;91753.63;2074998;69;20156;-73
2021/12/26 09:43:08;;;;;;;39.75;23.75;;;;;;;4.95;65.92;91759.56;2074881;69;20156;-73
2021/12/26 09:45:34;;;;;;;41.70;22.83;;;;;;;5.02;65.79;91753.03;2071544;69;20146;-72
2021/12/26 09:48:00;;;;;;;37.08;21.60;;;;;;;4.96;66.29;91763.06;2075015;69;20174;-72
2021/12/26 09:50:25;;;;;;;37.28;21.75;;;;;;;5.19;64.99;91759.69;2074892;69;20155;-73
2021/12/26 09:52:53;;;;;;;40.97;22.08;;;;;;;5.46;65.26;91751.66;2074790;69;20612;-76
2021/12/26 09:55:19;;;;;;;84.38;43.60;;;;;;;5.58;64.02;91755.22;2074701;69;20607;-78
2021/12/26 09:57:45;;;;;;;39.10;21.70;;;;;;;5.58;64.13;91757.28;2074704;69;20700;-78
2021/12/26 10:00:42;;;;;;;38.10;22.23;;;;;;;5.72;64.22;91749.06;2071429;69;20148;-80
2021/12/26 10:03:09;;;;;;;39.13;21.27;;;;;;;5.81;63.73;91754.56;2071387;69;20253;-79
2021/12/26 10:06:14;;;;;;;39.67;21.48;;;;;;;6.06;64.04;91761.72;2075332;69;20151;-77
2021/12/26 10:08:58;;;;;;;46.33;24.48;;;;;;;6.10;63.07;91739.59;2075332;69;20157;-79
2021/12/26 10:11:30;;;;;;;32.38;17.35;;;;;;;6.20;62.35;91748.59;2075494;69;20526;-79
2021/12/26 10:13:59;;;;;;;33.03;18.60;;;;;;;6.09;61.64;91740.91;2075458;69;20322;-79
2021/12/26 10:16:29;;;;;;;43.97;24.98;;;;;;;5.78;61.82;91736.22;2075354;69;20159;-79
2021/12/26 10:18:56;;;;;;;44.20;24.83;;;;;;;5.98;62.32;91734.00;2075348;69;20168;-79
2021/12/26 10:21:26;;;;;;;47.92;26.15;;;;;;;6.04;61.87;91728.75;2075290;69;20223;-75
2021/12/26 10:23:54;;;;;;;42.35;24.38;;;;;;;6.12;61.35;91722.94;2075426;69;20608;-75
2021/12/26 10:26:26;;;;;;;40.55;22.77;;;;;;;6.20;61.40;91712.28;2075387;69;20146;-77
2021/12/26 10:29:14;;;;;;;39.50;22.63;;;;;;;6.26;60.89;91707.03;2075384;69;20143;-77
2021/12/26 10:31:50;;;;;;;33.05;19.60;;;;;;;6.46;60.48;91704.00;2075490;69;20144;-72
2021/12/26 10:34:22;;;;;;;37.40;20.70;;;;;;;6.28;60.87;91709.97;2075178;69;20236;-78
2021/12/26 10:36:50;;;;;;;37.10;22.13;;;;;;;6.36;60.96;91709.72;2071961;69;20262;-74
2021/12/26 10:39:27;;;;;;;36.45;21.83;;;;;;;6.61;59.98;91709.09;2071920;69;20148;-78
2021/12/26 10:41:59;;;;;;;34.00;19.98;;;;;;;6.90;60.01;91702.38;2071910;69;20151;-74
2021/12/26 10:44:27;;;;;;;33.20;20.17;;;;;;;7.23;59.72;91705.69;2075297;69;20544;-74
2021/12/26 10:47:05;;;;;;;30.17;18.65;;;;;;;7.57;58.52;91704.09;2075249;69;20239;-76
2021/12/26 10:49:43;;;;;;;34.30;19.15;;;;;;;6.80;58.81;91700.44;2075260;69;20163;-76
2021/12/26 10:52:18;;;;;;;25.80;14.70;;;;;;;6.73;57.96;91700.69;2075284;69;20159;-77
2021/12/26 10:54:49;;;;;;;18.05;10.70;;;;;;;7.22;56.77;91704.22;2075455;69;20140;-76
2021/12/26 10:57:19;;;;;;;18.92;11.15;;;;;;;7.35;55.81;91697.25;2075274;69;20218;-75
2021/12/26 10:59:47;;;;;;;25.88;15.60;;;;;;;6.92;57.70;91703.22;2075329;69;20231;-73
2021/12/26 11:02:28;;;;;;;29.20;18.42;;;;;;;7.19;56.82;91702.66;2071963;69;20132;-73
2021/12/26 11:05:10;;;;;;;26.80;15.05;;;;;;;7.57;56.12;91697.78;2075132;69;20215;-73
2021/12/26 11:07:42;;;;;;;18.70;10.70;;;;;;;7.80;54.64;91699.72;2072377;69;20140;-73
2021/12/26 11:10:23;;;;;;;17.75;10.73;;;;;;;7.82;54.83;91697.75;2075272;69;20297;-73
2021/12/26 11:12:55;;;;;;;17.08;10.60;;;;;;;7.98;54.66;91700.00;2075355;69;20144;-73
2021/12/26 11:15:23;;;;;;;19.25;12.30;;;;;;;7.96;54.76;91688.66;2075263;69;20148;-75
2021/12/26 11:18:16;;;;;;;16.15;10.80;;;;;;;8.03;55.25;91691.19;2075301;69;20163;-73
2021/12/26 11:20:48;;;;;;;18.35;11.50;;;;;;;8.09;53.79;91682.34;2074421;69;20156;-75
2021/12/26 11:23:17;;;;;;;16.75;10.57;;;;;;;8.24;53.75;91675.41;2075393;69;20159;-74
2021/12/26 11:25:51;;;;;;;16.67;10.15;;;;;;;8.04;53.98;91678.59;2075160;69;20267;-72
2021/12/26 11:28:22;;;;;;;14.63;9.07;;;;;;;8.07;53.50;91674.56;2075230;69;20557;-73
2021/12/26 11:30:48;;;;;;;13.65;8.23;;;;;;;8.11;53.61;91683.22;2075363;69;20152;-74
2021/12/26 11:33:14;;;;;;;20.23;12.75;;;;;;;8.22;52.58;91686.53;2075291;69;20212;-73
2021/12/26 11:35:41;;;;;;;19.50;11.40;;;;;;;8.17;53.00;91684.88;2075115;69;20144;-79
2021/12/26 11:38:15;;;;;;;19.10;11.00;;;;;;;8.01;53.01;91687.53;2075194;69;20151;-74
2021/12/26 11:41:35;;;;;;;20.85;11.63;;;;;;;7.98;53.03;91675.50;2070889;69;20146;-79
2021/12/26 11:45:10;;;;;;;19.70;11.93;;;;;;;8.16;52.56;91681.34;2075218;69;20154;-73
2021/12/26 11:48:48;;;;;;;12.75;8.48;;;;;;;7.89;53.35;91671.53;2075445;69;20172;-74
2021/12/26 11:51:50;;;;;;;13.63;7.80;;;;;;;8.18;53.29;91670.22;2075322;69;20158;-79
2021/12/26 11:54:46;;;;;;;13.38;6.82;;;;;;;8.32;52.09;91667.44;2071793;69;20151;-74